Hazelwood, Washington
Current Conditions -  °F | °C
As of 1:59 PM on Thursday 27 Nov 2014 (Local Time) from KRNT Reporting Station
Overcast Overcast  
Wind Chill: 58°   Ceiling: 2300
Heat Index: 58°   Visibility: 10mi
Dew Point: 51°   Wind: 14mph
Humidity: 78%   Direction: 170°S
Pressure: 29.8"   Gusts: 20mph
Location:  47.5152°N, 122.184°W
Report Text: KRNT 272159Z 17012G17KT 10SM BKN023 OVC033 14/11 A2980 RMK AO2 T01440106
Loading
Personal Weather Stations






























Interactive Weather Map New forecast layout! Learn more

10-Day Weather Forecast

Advertisements
Track Severe Weather on mobile